Terminal Aerodrome Forecast
Issued by NWS Amarillo, TX

Home | Current Version | Previous Version | Text Only | Print | Product List | Glossary On
Versions: 1 2 3 4 5 6 7 8 9 10 11 12 13 14 15 16 17 18 19 20 21
000
FTUS44 KAMA 290200 AAC
TAFDHT
TAF AMD
KDHT 290200Z 2902/2924 18010KT P6SM SCT120
     FM291300 36016KT P6SM SCT120 SCT200
     FM291900 03012KT P6SM SCT040 BKN110=

USA.gov is the U.S. government's official web portal to all federal, state and local government web resources and services.